createdAt,value
2023-02-27T00:00:39.021Z,48.07
2023-02-27T00:01:42.520Z,47.57
2023-02-27T00:02:49.827Z,46.45
2023-02-27T00:03:52.918Z,48.28
2023-02-27T00:04:58.416Z,47.12
2023-02-27T00:06:03.406Z,49.50
2023-02-27T00:07:07.368Z,49.69
2023-02-27T00:08:11.824Z,48.41
2023-02-27T00:09:15.213Z,47.96
2023-02-27T00:10:21.059Z,46.96
2023-02-27T00:11:24.120Z,44.62
2023-02-27T00:12:28.090Z,44.05
2023-02-27T00:13:30.673Z,45.50
2023-02-27T00:14:36.473Z,44.36
2023-02-27T00:15:41.147Z,46.90
2023-02-27T00:16:44.838Z,44.84
2023-02-27T00:17:47.224Z,46.05
2023-02-27T00:18:50.612Z,46.55
2023-02-27T00:19:53.298Z,47.12
2023-02-27T00:20:56.738Z,45.68
2023-02-27T00:21:59.158Z,45.99
2023-02-27T00:23:02.600Z,44.50
2023-02-27T00:24:05.886Z,45.32
2023-02-27T00:25:10.608Z,47.27
2023-02-27T00:26:14.636Z,46.96
2023-02-27T00:27:18.087Z,45.55
2023-02-27T00:28:20.468Z,46.58
2023-02-27T00:29:24.025Z,43.60
2023-02-27T00:30:26.753Z,46.04
2023-02-27T00:31:30.686Z,44.48
2023-02-27T00:32:33.953Z,45.16
2023-02-27T00:33:37.349Z,45.16
2023-02-27T00:34:39.751Z,46.96
2023-02-27T00:35:43.237Z,43.18
2023-02-27T00:36:45.732Z,45.02
2023-02-27T00:37:49.911Z,44.48
2023-02-27T00:38:52.580Z,44.18
2023-02-27T00:39:56.076Z,45.15
2023-02-27T00:40:58.521Z,44.62
2023-02-27T00:42:03.800Z,44.53
2023-02-27T00:43:06.402Z,45.27
2023-02-27T00:44:10.378Z,45.22
2023-02-27T00:45:13.221Z,43.33
2023-02-27T00:46:16.886Z,45.21
2023-02-27T00:47:19.513Z,45.02
2023-02-27T00:48:22.983Z,43.63
2023-02-27T00:49:25.707Z,45.16
2023-02-27T00:50:29.404Z,45.77
2023-02-27T00:51:31.897Z,47.91
2023-02-27T00:52:35.585Z,47.58
2023-02-27T00:53:38.037Z,44.25
2023-02-27T00:54:41.587Z,43.85
2023-02-27T00:55:44.016Z,43.63
2023-02-27T00:56:47.544Z,45.63
2023-02-27T00:57:51.414Z,44.01
2023-02-27T00:58:55.233Z,47.28
2023-02-27T00:59:57.903Z,45.64
2023-02-27T01:01:01.748Z,45.45
2023-02-27T01:02:10.458Z,43.07
2023-02-27T01:03:14.159Z,43.52
2023-02-27T01:04:16.867Z,45.16
2023-02-27T01:05:20.840Z,46.08
2023-02-27T01:06:23.359Z,45.05
2023-02-27T01:07:27.056Z,46.00
2023-02-27T01:08:30.800Z,46.78
2023-02-27T01:09:34.483Z,43.39
2023-02-27T01:10:37.989Z,46.46
2023-02-27T01:11:40.326Z,44.76
2023-02-27T01:12:43.867Z,44.32
2023-02-27T01:13:47.734Z,46.59
2023-02-27T01:14:51.153Z,44.54
2023-02-27T01:15:53.513Z,43.10
2023-02-27T01:16:58.252Z,44.16
2023-02-27T01:18:00.714Z,45.05
2023-02-27T01:19:04.825Z,44.55
2023-02-27T01:20:11.730Z,44.25
2023-02-27T01:21:15.211Z,44.37
2023-02-27T01:22:17.610Z,44.03
2023-02-27T01:23:21.138Z,44.87
2023-02-27T01:24:23.571Z,44.23
2023-02-27T01:25:26.974Z,44.33
2023-02-27T01:26:29.359Z,43.96
2023-02-27T01:27:33.460Z,43.81
2023-02-27T01:28:36.086Z,45.13
2023-02-27T01:29:40.983Z,44.81
2023-02-27T01:30:43.629Z,46.42
2023-02-27T01:31:47.309Z,46.40
2023-02-27T01:32:49.839Z,45.23
2023-02-27T01:33:53.287Z,46.31
2023-02-27T01:34:55.724Z,47.65
2023-02-27T01:35:59.336Z,45.46
2023-02-27T01:37:01.755Z,46.53
2023-02-27T01:38:05.520Z,45.43
2023-02-27T01:39:08.594Z,45.20
2023-02-27T01:40:13.504Z,47.28
2023-02-27T01:41:16.428Z,47.03
2023-02-27T01:42:24.744Z,44.81
2023-02-27T01:43:27.476Z,44.23
2023-02-27T01:44:32.644Z,44.63
2023-02-27T01:45:40.843Z,46.20
2023-02-27T01:46:45.041Z,44.07
2023-02-27T01:47:50.458Z,45.54
2023-02-27T01:48:59.758Z,46.41
2023-02-27T01:50:03.250Z,44.24
2023-02-27T01:51:10.475Z,44.70
2023-02-27T01:52:16.458Z,44.51
2023-02-27T01:53:25.030Z,43.14
2023-02-27T01:54:29.968Z,45.69
2023-02-27T01:55:38.469Z,45.33
2023-02-27T01:56:44.057Z,44.10
2023-02-27T01:57:49.666Z,43.32
2023-02-27T01:58:57.747Z,45.01
2023-02-27T02:00:00.644Z,44.30
2023-02-27T02:01:06.524Z,44.48
2023-02-27T02:02:15.122Z,46.15
2023-02-27T02:03:27.069Z,44.35
2023-02-27T02:04:31.491Z,45.13
2023-02-27T02:05:35.456Z,45.53
2023-02-27T02:06:45.644Z,44.09
2023-02-27T02:07:50.347Z,44.78
2023-02-27T02:08:55.796Z,44.89
2023-02-27T02:10:01.824Z,45.81
2023-02-27T02:11:06.564Z,44.58
2023-02-27T02:12:11.482Z,47.24
2023-02-27T02:13:14.248Z,46.41
2023-02-27T02:14:18.072Z,45.60
2023-02-27T02:15:24.992Z,45.34
2023-02-27T02:16:55.837Z,46.48
2023-02-27T02:18:17.301Z,47.31
2023-02-27T02:19:54.583Z,44.75
2023-02-27T02:21:35.895Z,45.21
2023-02-27T02:23:08.584Z,45.48
2023-02-27T02:24:53.288Z,46.04
2023-02-27T02:26:29.257Z,47.61
2023-02-27T02:27:47.927Z,44.64
2023-02-27T02:29:23.312Z,43.03
2023-02-27T02:30:51.938Z,43.59
2023-02-27T02:32:35.556Z,43.12
2023-02-27T02:34:08.176Z,44.51
2023-02-27T02:35:51.214Z,42.97
2023-02-27T02:37:42.219Z,43.57
2023-02-27T02:38:57.382Z,43.17
2023-02-27T02:40:20.416Z,42.52
2023-02-27T02:41:35.447Z,42.50
2023-02-27T02:42:46.755Z,43.51
2023-02-27T02:43:59.087Z,42.44
2023-02-27T02:45:13.723Z,42.26
2023-02-27T02:46:24.337Z,42.83
2023-02-27T02:47:37.212Z,42.34
2023-02-27T02:48:46.072Z,44.94
2023-02-27T02:49:59.115Z,43.15
2023-02-27T02:51:08.419Z,42.79
2023-02-27T02:52:20.942Z,41.93
2023-02-27T02:53:37.007Z,42.92
2023-02-27T02:54:49.423Z,42.90
2023-02-27T02:56:00.561Z,41.46
2023-02-27T02:57:09.011Z,42.72
2023-02-27T02:58:20.477Z,41.72
2023-02-27T02:59:28.363Z,42.42
2023-02-27T03:00:34.448Z,42.66
2023-02-27T03:01:43.687Z,44.10
2023-02-27T03:02:49.940Z,43.72
2023-02-27T03:03:58.193Z,43.32
2023-02-27T03:05:05.703Z,42.84
2023-02-27T03:06:15.510Z,43.08
2023-02-27T03:07:24.136Z,43.26
2023-02-27T03:08:32.741Z,44.02
2023-02-27T03:09:38.094Z,46.40
2023-02-27T03:10:48.079Z,45.11
2023-02-27T03:11:53.567Z,46.10
2023-02-27T03:13:03.411Z,47.16
2023-02-27T03:14:10.437Z,44.10
2023-02-27T03:15:18.367Z,45.21
2023-02-27T03:16:25.840Z,45.64
2023-02-27T03:17:35.344Z,45.54
2023-02-27T03:18:43.657Z,46.54
2023-02-27T03:19:55.210Z,45.82
2023-02-27T03:21:02.217Z,45.89
2023-02-27T03:22:09.020Z,44.42
2023-02-27T03:23:17.082Z,45.04
2023-02-27T03:24:24.848Z,45.53
2023-02-27T03:25:29.064Z,45.27
2023-02-27T03:26:37.518Z,45.63
2023-02-27T03:27:46.626Z,47.24
2023-02-27T03:28:57.312Z,47.42
2023-02-27T03:30:06.372Z,47.41
2023-02-27T03:31:18.867Z,47.34
2023-02-27T03:32:25.242Z,47.54
2023-02-27T03:33:32.794Z,48.80
2023-02-27T03:34:38.659Z,47.35
2023-02-27T03:35:48.213Z,49.46
2023-02-27T03:36:57.829Z,49.05
2023-02-27T03:38:07.847Z,48.51
2023-02-27T03:39:18.174Z,47.69
2023-02-27T03:40:28.745Z,48.11
2023-02-27T03:41:37.902Z,48.26
2023-02-27T03:42:47.632Z,48.67
2023-02-27T03:44:00.456Z,49.06
2023-02-27T03:45:09.777Z,50.72
2023-02-27T03:46:15.289Z,48.30
2023-02-27T03:47:19.044Z,49.84
2023-02-27T03:48:21.616Z,49.18
2023-02-27T03:49:25.293Z,49.06
2023-02-27T03:50:28.007Z,48.15
2023-02-27T03:51:31.796Z,50.18
2023-02-27T03:52:34.287Z,49.30
2023-02-27T03:53:43.141Z,48.88
2023-02-27T03:54:50.610Z,49.08
2023-02-27T03:55:55.068Z,49.93
2023-02-27T03:57:01.779Z,49.91
2023-02-27T03:58:06.908Z,50.39
2023-02-27T03:59:09.391Z,48.80
2023-02-27T04:00:16.430Z,48.10
2023-02-27T04:01:19.384Z,47.24
2023-02-27T04:02:24.574Z,49.57
2023-02-27T04:03:27.934Z,47.24
2023-02-27T04:04:33.181Z,50.03
2023-02-27T04:05:36.021Z,48.38
2023-02-27T04:06:59.126Z,48.97
2023-02-27T04:08:28.257Z,49.50
2023-02-27T04:09:43.341Z,48.24
2023-02-27T04:11:01.160Z,49.17
2023-02-27T04:12:20.438Z,49.47
2023-02-27T04:13:38.804Z,49.63
2023-02-27T04:14:57.767Z,46.06
2023-02-27T04:16:22.647Z,47.91
2023-02-27T04:17:30.389Z,46.94
2023-02-27T04:18:51.622Z,45.25
2023-02-27T04:20:19.072Z,45.36
2023-02-27T04:21:29.793Z,46.14
2023-02-27T04:22:38.336Z,47.13
2023-02-27T04:23:51.616Z,45.51
2023-02-27T04:25:04.529Z,46.27
2023-02-27T04:26:19.820Z,46.92
2023-02-27T04:27:35.006Z,47.85
2023-02-27T04:28:46.988Z,47.13
2023-02-27T04:29:57.949Z,46.60
2023-02-27T04:31:06.704Z,48.28
2023-02-27T04:32:20.130Z,48.16
2023-02-27T04:33:31.054Z,45.37
2023-02-27T04:34:40.304Z,46.62
2023-02-27T04:35:50.151Z,46.37
2023-02-27T04:36:59.049Z,44.50
2023-02-27T04:38:06.324Z,46.68
2023-02-27T04:39:13.994Z,45.60
2023-02-27T04:40:20.084Z,44.65
2023-02-27T04:41:28.488Z,46.63
2023-02-27T04:42:38.008Z,46.17
2023-02-27T04:43:43.309Z,46.88
2023-02-27T04:44:49.100Z,45.79
2023-02-27T04:45:55.006Z,46.58
2023-02-27T04:47:01.626Z,48.14
2023-02-27T04:48:08.916Z,46.81
2023-02-27T04:49:19.477Z,48.13
2023-02-27T04:50:26.051Z,48.58
2023-02-27T04:51:36.377Z,46.91
2023-02-27T04:52:42.066Z,46.52
2023-02-27T04:53:50.998Z,45.74
2023-02-27T04:54:58.494Z,44.81
2023-02-27T04:56:05.923Z,45.16
2023-02-27T04:57:13.186Z,46.06
2023-02-27T04:58:24.390Z,46.44
2023-02-27T04:59:31.270Z,45.62
2023-02-27T05:00:38.227Z,45.81
2023-02-27T05:01:43.919Z,46.27
2023-02-27T05:02:53.020Z,46.53
2023-02-27T05:04:00.314Z,46.59
2023-02-27T05:05:07.829Z,47.48
2023-02-27T05:06:11.631Z,48.04
2023-02-27T05:07:21.163Z,48.43
2023-02-27T05:08:30.525Z,49.13
2023-02-27T05:09:42.128Z,48.45
2023-02-27T05:10:52.481Z,49.86
2023-02-27T05:12:01.543Z,50.44
2023-02-27T05:13:07.698Z,51.44
2023-02-27T05:14:18.544Z,51.45
2023-02-27T05:15:25.302Z,51.86
2023-02-27T05:16:34.232Z,52.73
2023-02-27T05:17:41.448Z,51.98
2023-02-27T05:18:45.175Z,52.56
2023-02-27T05:19:48.066Z,52.42
2023-02-27T05:20:59.935Z,52.83
2023-02-27T05:22:12.388Z,53.12
2023-02-27T05:23:24.036Z,52.44
2023-02-27T05:24:37.206Z,52.32
2023-02-27T05:25:49.319Z,52.50
2023-02-27T05:27:13.946Z,52.42
2023-02-27T05:28:20.579Z,52.28
2023-02-27T05:29:33.582Z,53.18
2023-02-27T05:30:41.910Z,53.20
2023-02-27T05:31:52.109Z,52.37
2023-02-27T05:33:00.530Z,53.88
2023-02-27T05:34:09.474Z,53.26
2023-02-27T05:35:21.211Z,54.09
2023-02-27T05:36:29.759Z,52.17
2023-02-27T05:37:37.705Z,52.06
2023-02-27T05:38:45.289Z,51.87
2023-02-27T05:39:51.144Z,52.06
2023-02-27T05:40:59.507Z,51.50
2023-02-27T05:42:05.143Z,52.49
2023-02-27T05:43:13.621Z,51.87
2023-02-27T05:44:19.579Z,51.38
2023-02-27T05:45:29.862Z,51.47
2023-02-27T05:46:36.230Z,51.31
2023-02-27T05:47:44.381Z,52.47
2023-02-27T05:48:49.664Z,51.16
2023-02-27T05:49:56.464Z,49.05
2023-02-27T05:50:59.930Z,50.60
2023-02-27T05:52:09.058Z,49.98
2023-02-27T05:53:16.726Z,51.40
2023-02-27T05:54:24.986Z,49.60
2023-02-27T05:55:32.637Z,51.51
2023-02-27T05:56:37.564Z,48.13
2023-02-27T05:57:46.006Z,49.09
2023-02-27T05:58:55.762Z,50.92
2023-02-27T06:00:03.454Z,50.40
2023-02-27T06:01:11.012Z,50.82
2023-02-27T06:02:13.805Z,49.14
2023-02-27T06:03:17.577Z,49.31
2023-02-27T06:04:20.384Z,49.85
2023-02-27T06:05:25.748Z,46.73
2023-02-27T06:06:31.016Z,47.30
2023-02-27T06:07:35.819Z,48.09
2023-02-27T06:08:38.482Z,47.34
2023-02-27T06:09:42.926Z,47.62
2023-02-27T06:10:46.320Z,49.21
2023-02-27T06:11:49.792Z,48.79
2023-02-27T06:12:52.193Z,47.59
2023-02-27T06:13:55.702Z,47.58
2023-02-27T06:14:58.051Z,49.52
2023-02-27T06:16:01.552Z,48.60
2023-02-27T06:17:05.340Z,48.41
2023-02-27T06:18:08.736Z,50.47
2023-02-27T06:19:11.448Z,48.74
2023-02-27T06:20:15.357Z,50.13
2023-02-27T06:21:17.968Z,49.40
2023-02-27T06:22:21.515Z,48.02
2023-02-27T06:23:25.048Z,48.81
2023-02-27T06:24:27.514Z,48.81
2023-02-27T06:25:31.121Z,49.53
2023-02-27T06:26:34.638Z,50.90
2023-02-27T06:27:37.031Z,49.69
2023-02-27T06:28:40.694Z,50.75
2023-02-27T06:29:43.418Z,51.29
2023-02-27T06:30:46.871Z,53.09
2023-02-27T06:31:49.640Z,51.91
2023-02-27T06:32:54.955Z,52.18
2023-02-27T06:33:58.081Z,51.57
2023-02-27T06:35:01.506Z,52.69
2023-02-27T06:36:04.175Z,52.15
2023-02-27T06:37:07.756Z,51.77
2023-02-27T06:38:10.761Z,50.53
2023-02-27T06:39:14.449Z,52.00
2023-02-27T06:40:16.904Z,51.11
2023-02-27T06:41:20.740Z,51.94
2023-02-27T06:42:23.584Z,51.17
2023-02-27T06:43:27.068Z,50.83
2023-02-27T06:44:30.717Z,51.81
2023-02-27T06:45:33.230Z,51.30
2023-02-27T06:46:36.711Z,52.79
2023-02-27T06:47:39.630Z,53.04
2023-02-27T06:48:44.448Z,53.04
2023-02-27T06:49:48.004Z,53.73
2023-02-27T06:50:53.105Z,50.88
2023-02-27T06:51:56.621Z,50.84
2023-02-27T06:52:59.414Z,51.51
2023-02-27T06:54:03.007Z,51.32
2023-02-27T06:55:06.436Z,50.55
2023-02-27T06:56:10.833Z,50.24
2023-02-27T06:57:13.494Z,51.15
2023-02-27T06:58:18.106Z,50.71
2023-02-27T06:59:21.239Z,49.72
2023-02-27T07:00:25.573Z,49.85
2023-02-27T07:01:29.027Z,50.15
2023-02-27T07:02:31.471Z,51.20
2023-02-27T07:03:35.068Z,50.17
2023-02-27T07:04:39.095Z,51.47
2023-02-27T07:05:43.202Z,50.15
2023-02-27T07:07:35.660Z,51.42
2023-02-27T07:08:09.263Z,51.21
2023-02-27T07:09:11.606Z,49.67
2023-02-27T07:10:15.894Z,48.24
2023-02-27T07:11:18.455Z,49.81
2023-02-27T07:12:22.551Z,49.42
2023-02-27T07:13:24.914Z,49.65
2023-02-27T07:14:28.334Z,50.08
2023-02-27T07:15:30.714Z,49.34
2023-02-27T07:16:34.264Z,49.72
2023-02-27T07:17:36.766Z,51.74
2023-02-27T07:18:40.441Z,51.11
2023-02-27T07:19:45.716Z,50.34
2023-02-27T07:20:52.360Z,50.96
2023-02-27T07:21:54.694Z,50.02
2023-02-27T07:22:58.176Z,51.60
2023-02-27T07:24:00.595Z,51.29
2023-02-27T07:25:04.500Z,49.88
2023-02-27T07:26:06.918Z,49.69
2023-02-27T07:27:10.344Z,51.04
2023-02-27T07:28:12.694Z,48.93
2023-02-27T07:29:16.152Z,49.51
2023-02-27T07:30:19.946Z,49.42
2023-02-27T07:31:22.476Z,48.91
2023-02-27T07:32:26.009Z,49.81
2023-02-27T07:33:29.587Z,48.92
2023-02-27T07:34:32.010Z,49.48
2023-02-27T07:35:37.003Z,51.13
2023-02-27T07:36:40.769Z,48.71
2023-02-27T07:37:44.407Z,50.07
2023-02-27T07:38:46.967Z,50.28
2023-02-27T07:39:50.843Z,48.96
2023-02-27T07:40:53.780Z,48.26
2023-02-27T07:41:57.279Z,48.62
2023-02-27T07:43:00.781Z,48.71
2023-02-27T07:44:03.357Z,49.36
2023-02-27T07:45:07.791Z,48.89
2023-02-27T07:46:10.327Z,47.04
2023-02-27T07:47:13.710Z,46.71
2023-02-27T07:48:16.379Z,48.34
2023-02-27T07:49:19.925Z,48.86
2023-02-27T07:50:23.362Z,47.46
2023-02-27T07:51:28.530Z,46.91
2023-02-27T07:52:31.945Z,46.90
2023-02-27T07:53:35.390Z,46.17
2023-02-27T07:54:37.797Z,46.78
2023-02-27T07:55:41.255Z,46.15
2023-02-27T07:56:43.661Z,46.40
2023-02-27T07:57:47.049Z,47.38
2023-02-27T07:58:49.370Z,47.02
2023-02-27T07:59:52.794Z,46.58
2023-02-27T08:00:55.132Z,47.54
2023-02-27T08:01:58.686Z,47.34
2023-02-27T08:03:01.511Z,46.24
2023-02-27T08:04:04.896Z,46.80
2023-02-27T08:05:08.399Z,46.74
2023-02-27T08:06:11.902Z,45.91
2023-02-27T08:07:15.732Z,46.78
2023-02-27T08:08:19.180Z,44.75
2023-02-27T08:09:21.560Z,44.38
2023-02-27T08:10:25.185Z,45.33
2023-02-27T08:11:28.939Z,45.09
2023-02-27T08:12:31.713Z,43.92
2023-02-27T08:13:59.689Z,46.11
2023-02-27T08:14:59.395Z,45.56
2023-02-27T08:16:01.859Z,44.88
2023-02-27T08:17:05.336Z,45.29
2023-02-27T08:18:07.878Z,44.72
2023-02-27T08:19:13.464Z,46.11
2023-02-27T08:20:16.104Z,45.04
2023-02-27T08:21:19.508Z,46.61
2023-02-27T08:22:23.429Z,47.34
2023-02-27T08:23:26.976Z,47.90
2023-02-27T08:24:29.569Z,46.72
2023-02-27T08:25:33.639Z,47.18
2023-02-27T08:26:36.137Z,48.59
2023-02-27T08:27:40.795Z,46.88
2023-02-27T08:28:43.372Z,46.32
2023-02-27T08:29:46.911Z,47.04
2023-02-27T08:30:49.261Z,47.40
2023-02-27T08:31:52.759Z,46.86
2023-02-27T08:32:55.820Z,47.65
2023-02-27T08:34:09.344Z,45.79
2023-02-27T08:35:14.571Z,45.26
2023-02-27T08:36:17.057Z,45.94
2023-02-27T08:37:20.883Z,45.96
2023-02-27T08:38:26.380Z,45.82
2023-02-27T08:39:29.886Z,46.10
2023-02-27T08:40:32.283Z,45.97
2023-02-27T08:41:36.072Z,47.47
2023-02-27T08:42:38.506Z,45.29
2023-02-27T08:43:41.914Z,45.22
2023-02-27T08:44:45.412Z,44.67
2023-02-27T08:45:48.113Z,44.90
2023-02-27T08:46:51.513Z,44.94
2023-02-27T08:47:53.861Z,45.12
2023-02-27T08:48:57.236Z,45.18
2023-02-27T08:49:59.668Z,44.32
2023-02-27T08:51:03.274Z,42.56
2023-02-27T08:52:05.766Z,42.82
2023-02-27T08:53:09.308Z,41.83
2023-02-27T08:54:14.708Z,41.38
2023-02-27T08:55:18.496Z,41.65
2023-02-27T08:56:20.894Z,41.67
2023-02-27T08:57:24.339Z,41.13
2023-02-27T08:58:27.517Z,41.60
2023-02-27T08:59:31.070Z,41.52
2023-02-27T09:00:33.490Z,41.54
2023-02-27T09:01:36.877Z,41.89
2023-02-27T09:02:40.324Z,41.90
2023-02-27T09:03:42.742Z,40.71
2023-02-27T09:04:46.295Z,40.01
2023-02-27T09:05:49.831Z,40.08
2023-02-27T09:06:54.653Z,39.75
2023-02-27T09:07:57.267Z,39.54
2023-02-27T09:09:01.006Z,39.60
2023-02-27T09:10:07.351Z,38.95
2023-02-27T09:11:09.674Z,38.34
2023-02-27T09:12:13.432Z,39.41
2023-02-27T09:13:16.265Z,38.53
2023-02-27T09:14:20.130Z,37.72
2023-02-27T09:15:23.487Z,37.45
2023-02-27T09:16:26.459Z,36.64
2023-02-27T09:17:30.417Z,37.04
2023-02-27T09:18:32.778Z,36.11
2023-02-27T09:19:36.739Z,35.83
2023-02-27T09:20:41.540Z,35.91
2023-02-27T09:21:45.045Z,35.18
2023-02-27T09:22:47.633Z,36.19
2023-02-27T09:23:51.113Z,37.63
2023-02-27T09:24:54.524Z,37.58
2023-02-27T09:25:58.350Z,37.13
2023-02-27T09:27:01.994Z,36.78
2023-02-27T09:28:05.533Z,36.06
2023-02-27T09:29:07.809Z,33.56
2023-02-27T09:30:12.569Z,33.33
2023-02-27T09:31:16.621Z,32.91
2023-02-27T09:32:19.133Z,31.37
2023-02-27T09:33:25.006Z,27.99
2023-02-27T09:34:27.603Z,27.35
2023-02-27T09:35:31.081Z,26.54
2023-02-27T09:36:33.844Z,26.76
2023-02-27T09:37:37.932Z,28.24
2023-02-27T09:38:41.538Z,27.57
2023-02-27T09:39:46.171Z,28.33
2023-02-27T09:40:52.248Z,28.92
2023-02-27T09:42:02.611Z,29.05
2023-02-27T09:43:17.217Z,30.08
2023-02-27T09:44:45.162Z,32.03
2023-02-27T09:45:55.095Z,33.28
2023-02-27T09:46:57.607Z,33.89
2023-02-27T09:48:07.651Z,33.78
2023-02-27T09:49:15.637Z,33.24
2023-02-27T09:50:34.575Z,32.32
2023-02-27T09:51:36.954Z,32.69
2023-02-27T09:52:41.059Z,32.23
2023-02-27T09:53:46.092Z,33.27
2023-02-27T09:54:50.512Z,32.22
2023-02-27T09:55:54.577Z,31.68
2023-02-27T09:57:03.479Z,32.94
2023-02-27T09:58:13.837Z,32.38
2023-02-27T09:59:30.348Z,34.83
2023-02-27T10:00:48.351Z,36.13
2023-02-27T10:01:56.117Z,38.58
2023-02-27T10:03:13.043Z,39.70
2023-02-27T10:04:32.814Z,39.72
2023-02-27T10:05:41.712Z,40.08
2023-02-27T10:06:48.911Z,41.52
2023-02-27T10:08:01.521Z,41.54
2023-02-27T10:09:22.106Z,41.23
2023-02-27T10:10:30.673Z,43.28
2023-02-27T10:11:45.552Z,43.95
2023-02-27T10:13:03.498Z,45.02
2023-02-27T10:14:19.064Z,45.73
2023-02-27T10:15:26.723Z,45.04
2023-02-27T10:16:32.583Z,45.09
2023-02-27T10:17:40.252Z,43.27
2023-02-27T10:18:51.548Z,42.51
2023-02-27T10:19:55.861Z,44.07
2023-02-27T10:21:00.881Z,43.33
2023-02-27T10:22:11.426Z,41.73
2023-02-27T10:23:19.378Z,42.70
2023-02-27T10:24:27.751Z,42.38
2023-02-27T10:25:34.964Z,40.97
2023-02-27T10:26:41.339Z,40.17
2023-02-27T10:27:49.003Z,38.82
2023-02-27T10:28:52.931Z,36.71
2023-02-27T10:30:03.007Z,36.43
2023-02-27T10:31:18.184Z,37.45
2023-02-27T10:32:25.291Z,36.73
2023-02-27T10:33:34.341Z,37.58
2023-02-27T10:34:40.674Z,38.68
2023-02-27T10:35:45.401Z,39.38
2023-02-27T10:36:49.720Z,40.21
2023-02-27T10:37:59.905Z,40.13
2023-02-27T10:39:08.020Z,41.78
2023-02-27T10:40:17.794Z,42.30
2023-02-27T10:41:23.477Z,41.64
2023-02-27T10:42:30.554Z,41.23
2023-02-27T10:43:34.323Z,40.80
2023-02-27T10:44:38.418Z,37.62
2023-02-27T10:45:42.419Z,38.64
2023-02-27T10:46:46.524Z,35.84
2023-02-27T10:47:48.994Z,34.65
2023-02-27T10:48:52.765Z,34.34
2023-02-27T10:49:56.820Z,28.82
2023-02-27T10:51:23.565Z,27.56
2023-02-27T10:52:27.527Z,28.59
2023-02-27T10:53:29.987Z,27.13
2023-02-27T10:54:33.430Z,27.96
2023-02-27T10:55:39.443Z,28.30
2023-02-27T10:56:44.976Z,28.53
2023-02-27T10:57:48.441Z,28.97
2023-02-27T10:59:04.599Z,29.82
2023-02-27T11:00:24.640Z,30.57
2023-02-27T11:01:43.813Z,29.60
2023-02-27T11:02:52.184Z,31.56
2023-02-27T11:03:56.539Z,32.26
2023-02-27T11:05:01.569Z,32.40
2023-02-27T11:06:08.165Z,32.09
2023-02-27T11:07:16.882Z,33.04
2023-02-27T11:08:24.251Z,34.57
2023-02-27T11:09:30.470Z,33.39
2023-02-27T11:10:33.897Z,32.67
2023-02-27T11:11:36.339Z,33.03
2023-02-27T11:12:40.924Z,32.30
2023-02-27T11:13:46.431Z,30.84
2023-02-27T11:14:51.637Z,30.53
2023-02-27T11:16:15.638Z,29.73
2023-02-27T11:17:24.257Z,28.25
2023-02-27T11:18:29.900Z,27.84
2023-02-27T11:19:36.188Z,26.68
2023-02-27T11:20:40.736Z,26.48
2023-02-27T11:22:01.956Z,25.92
2023-02-27T11:23:07.848Z,26.29
2023-02-27T11:24:21.319Z,26.33
2023-02-27T11:25:26.249Z,25.63
2023-02-27T11:26:33.236Z,26.23
2023-02-27T11:27:36.740Z,24.37
2023-02-27T11:28:41.160Z,24.44
2023-02-27T11:29:58.179Z,25.54
2023-02-27T11:31:03.696Z,26.06
2023-02-27T11:32:15.213Z,26.63
2023-02-27T11:33:20.339Z,25.42
2023-02-27T11:34:31.537Z,25.37
2023-02-27T11:35:38.331Z,25.44
2023-02-27T11:36:44.759Z,25.37
2023-02-27T11:37:51.115Z,25.66
2023-02-27T11:38:55.514Z,26.02
2023-02-27T11:40:12.919Z,25.67
2023-02-27T11:41:15.972Z,25.92
2023-02-27T11:42:26.460Z,25.01
2023-02-27T11:43:32.700Z,25.32
2023-02-27T11:44:50.263Z,25.27
2023-02-27T11:46:11.330Z,25.40
2023-02-27T11:47:28.504Z,25.22
2023-02-27T11:48:37.577Z,26.00
2023-02-27T11:50:02.235Z,25.47
2023-02-27T11:51:28.210Z,27.55
2023-02-27T11:52:38.256Z,26.61
2023-02-27T11:54:06.556Z,27.51
2023-02-27T11:55:16.053Z,28.48
2023-02-27T11:56:23.490Z,28.24
2023-02-27T11:57:31.623Z,27.37
2023-02-27T11:58:42.918Z,27.07
2023-02-27T11:59:52.076Z,27.17
2023-02-27T12:00:59.136Z,27.56
2023-02-27T12:02:07.509Z,27.43
2023-02-27T12:03:22.355Z,27.13
2023-02-27T12:04:31.180Z,27.23
2023-02-27T12:05:39.539Z,28.03
2023-02-27T12:06:49.478Z,28.81
2023-02-27T12:07:56.980Z,27.98
2023-02-27T12:09:04.954Z,27.44
2023-02-27T12:10:14.419Z,28.36
2023-02-27T12:11:25.314Z,28.58
2023-02-27T12:12:34.874Z,28.83
2023-02-27T12:13:41.803Z,29.68
2023-02-27T12:14:50.311Z,30.27
2023-02-27T12:16:01.015Z,29.12
2023-02-27T12:17:11.337Z,29.69
2023-02-27T12:18:20.773Z,29.76
2023-02-27T12:19:30.350Z,29.85
2023-02-27T12:20:37.721Z,28.25
2023-02-27T12:21:44.151Z,27.80
2023-02-27T12:22:52.536Z,29.21
2023-02-27T12:24:03.307Z,28.36
2023-02-27T12:25:10.948Z,30.04
2023-02-27T12:26:20.770Z,29.95
2023-02-27T12:27:26.627Z,28.58
2023-02-27T12:28:41.148Z,30.07
2023-02-27T12:29:49.874Z,29.41
2023-02-27T12:31:06.250Z,28.99
2023-02-27T12:32:19.398Z,29.75
2023-02-27T12:33:37.447Z,28.41
2023-02-27T12:34:45.547Z,29.15
2023-02-27T12:35:55.893Z,29.70
2023-02-27T12:37:03.700Z,29.92
2023-02-27T12:38:07.534Z,30.81
2023-02-27T12:39:20.730Z,30.99
2023-02-27T12:40:31.408Z,31.24
2023-02-27T12:41:47.720Z,31.47
2023-02-27T12:43:11.094Z,32.22
2023-02-27T12:44:43.022Z,30.98
2023-02-27T12:46:05.305Z,30.13
2023-02-27T12:47:20.666Z,30.31
2023-02-27T12:48:43.023Z,30.51
2023-02-27T12:49:53.328Z,30.86
2023-02-27T12:51:02.943Z,31.28
2023-02-27T12:52:17.175Z,30.77
2023-02-27T12:53:36.899Z,30.11
2023-02-27T12:54:48.910Z,28.95
2023-02-27T12:55:59.401Z,30.77
2023-02-27T12:57:29.223Z,32.50
2023-02-27T12:58:46.451Z,33.06
2023-02-27T12:59:59.253Z,33.93
2023-02-27T13:01:07.370Z,34.03
2023-02-27T13:02:29.775Z,34.22
2023-02-27T13:03:49.579Z,35.47
2023-02-27T13:05:02.146Z,34.45
2023-02-27T13:06:15.708Z,34.45
2023-02-27T13:07:27.111Z,34.60
2023-02-27T13:09:05.401Z,35.31
2023-02-27T13:10:16.193Z,35.67
2023-02-27T13:11:26.604Z,36.00
2023-02-27T13:12:37.661Z,37.16
2023-02-27T13:13:44.407Z,37.34
2023-02-27T13:14:51.226Z,37.87
2023-02-27T13:16:00.103Z,38.65
2023-02-27T13:17:06.391Z,38.78
2023-02-27T13:18:29.414Z,38.80
2023-02-27T13:19:39.223Z,39.38
2023-02-27T13:20:50.196Z,39.79
2023-02-27T13:21:56.895Z,39.36
2023-02-27T13:23:06.833Z,39.98
2023-02-27T13:24:26.001Z,39.98
2023-02-27T13:25:30.994Z,40.15
2023-02-27T13:26:38.995Z,40.14
2023-02-27T13:27:46.696Z,40.88
2023-02-27T13:28:49.737Z,40.71
2023-02-27T13:30:09.877Z,41.84
2023-02-27T13:31:27.202Z,41.94
2023-02-27T13:32:44.233Z,42.25
2023-02-27T13:33:54.688Z,41.88
2023-02-27T13:35:07.712Z,42.34
2023-02-27T13:36:15.110Z,41.11
2023-02-27T13:37:19.031Z,41.14
2023-02-27T13:38:34.079Z,41.41
2023-02-27T13:39:43.904Z,41.65
2023-02-27T13:40:47.380Z,41.83
2023-02-27T13:41:49.813Z,41.50
2023-02-27T13:43:03.257Z,41.48
2023-02-27T13:44:46.199Z,41.32
2023-02-27T13:45:59.020Z,41.11
2023-02-27T13:47:35.392Z,41.74
2023-02-27T13:48:48.103Z,41.67
2023-02-27T13:49:50.587Z,41.64
2023-02-27T13:50:55.475Z,41.60
2023-02-27T13:52:02.211Z,42.39
2023-02-27T13:53:11.011Z,42.14
2023-02-27T13:54:28.123Z,42.19
2023-02-27T13:55:35.351Z,41.78
2023-02-27T13:56:38.849Z,41.68
2023-02-27T13:57:42.328Z,42.03
2023-02-27T13:58:45.522Z,42.03
2023-02-27T13:59:58.325Z,42.41
2023-02-27T14:01:03.472Z,42.65
2023-02-27T14:02:32.917Z,42.82
2023-02-27T14:03:36.458Z,42.97
2023-02-27T14:04:49.786Z,43.64
2023-02-27T14:05:57.558Z,43.44
2023-02-27T14:07:03.235Z,43.00
2023-02-27T14:08:10.890Z,43.19
2023-02-27T14:09:18.665Z,43.17
2023-02-27T14:10:24.331Z,42.47
2023-02-27T14:11:30.408Z,42.73
2023-02-27T14:12:44.426Z,42.58
2023-02-27T14:14:08.658Z,42.58
2023-02-27T14:15:55.526Z,43.00
2023-02-27T14:17:01.658Z,42.60
2023-02-27T14:18:17.834Z,42.63
2023-02-27T14:19:49.542Z,42.92
2023-02-27T14:20:55.001Z,43.17
2023-02-27T14:22:00.494Z,43.31
2023-02-27T14:23:21.893Z,42.81
2023-02-27T14:24:28.719Z,42.59
2023-02-27T14:25:36.106Z,43.28
2023-02-27T14:26:40.185Z,43.39
2023-02-27T14:27:52.141Z,43.45
2023-02-27T14:28:58.249Z,43.55
2023-02-27T14:30:04.493Z,42.75
2023-02-27T14:31:11.759Z,43.06
2023-02-27T14:32:18.873Z,43.13
2023-02-27T14:33:39.133Z,43.88
2023-02-27T14:34:43.885Z,44.11